sensor_id;sensor_type;location;lat;lon;timestamp;P1;durP1;ratioP1;P2;durP2;ratioP2
76729;SDS011;65653;53.106;18.046;2023-08-20T00:00:10;22.20;;;16.70;;
76729;SDS011;65653;53.106;18.046;2023-08-20T00:03:04;22.10;;;16.60;;
76729;SDS011;65653;53.106;18.046;2023-08-20T00:05:38;19.90;;;17.30;;
76729;SDS011;65653;53.106;18.046;2023-08-20T00:08:05;21.20;;;18.00;;
76729;SDS011;65653;53.106;18.046;2023-08-20T00:10:32;22.30;;;16.50;;
76729;SDS011;65653;53.106;18.046;2023-08-20T00:12:59;22.20;;;17.60;;
76729;SDS011;65653;53.106;18.046;2023-08-20T00:15:26;21.90;;;17.90;;
76729;SDS011;65653;53.106;18.046;2023-08-20T00:17:53;21.00;;;18.70;;
76729;SDS011;65653;53.106;18.046;2023-08-20T00:20:21;23.20;;;18.10;;
76729;SDS011;65653;53.106;18.046;2023-08-20T00:22:48;19.40;;;15.50;;
76729;SDS011;65653;53.106;18.046;2023-08-20T00:25:15;23.80;;;18.20;;
76729;SDS011;65653;53.106;18.046;2023-08-20T00:27:43;21.40;;;17.90;;
76729;SDS011;65653;53.106;18.046;2023-08-20T00:30:10;21.90;;;18.20;;
76729;SDS011;65653;53.106;18.046;2023-08-20T00:32:37;20.90;;;18.00;;
76729;SDS011;65653;53.106;18.046;2023-08-20T00:35:04;23.20;;;18.60;;
76729;SDS011;65653;53.106;18.046;2023-08-20T00:37:31;25.20;;;18.40;;
76729;SDS011;65653;53.106;18.046;2023-08-20T00:39:58;21.40;;;19.00;;
76729;SDS011;65653;53.106;18.046;2023-08-20T00:42:24;21.70;;;18.50;;
76729;SDS011;65653;53.106;18.046;2023-08-20T00:44:54;21.90;;;17.00;;
76729;SDS011;65653;53.106;18.046;2023-08-20T00:47:20;22.70;;;17.80;;
76729;SDS011;65653;53.106;18.046;2023-08-20T00:49:47;21.90;;;18.10;;
76729;SDS011;65653;53.106;18.046;2023-08-20T00:52:15;20.10;;;17.90;;
76729;SDS011;65653;53.106;18.046;2023-08-20T00:54:44;23.50;;;18.50;;
76729;SDS011;65653;53.106;18.046;2023-08-20T00:57:15;23.00;;;18.00;;
76729;SDS011;65653;53.106;18.046;2023-08-20T00:59:44;23.00;;;18.20;;
76729;SDS011;65653;53.106;18.046;2023-08-20T01:02:15;21.80;;;17.50;;
76729;SDS011;65653;53.106;18.046;2023-08-20T01:04:43;22.20;;;18.00;;
76729;SDS011;65653;53.106;18.046;2023-08-20T01:12:31;24.50;;;20.00;;
76729;SDS011;65653;53.106;18.046;2023-08-20T01:14:59;24.20;;;19.00;;
76729;SDS011;65653;53.106;18.046;2023-08-20T01:17:25;22.60;;;19.30;;
76729;SDS011;65653;53.106;18.046;2023-08-20T01:19:52;27.60;;;19.90;;
76729;SDS011;65653;53.106;18.046;2023-08-20T01:27:42;23.10;;;19.70;;
76729;SDS011;65653;53.106;18.046;2023-08-20T01:30:19;24.40;;;19.60;;
76729;SDS011;65653;53.106;18.046;2023-08-20T01:32:50;28.70;;;19.60;;
76729;SDS011;65653;53.106;18.046;2023-08-20T01:35:19;23.80;;;18.50;;
76729;SDS011;65653;53.106;18.046;2023-08-20T01:37:45;16.80;;;14.40;;
76729;SDS011;65653;53.106;18.046;2023-08-20T01:40:12;23.10;;;18.40;;
76729;SDS011;65653;53.106;18.046;2023-08-20T01:42:39;22.60;;;19.40;;
76729;SDS011;65653;53.106;18.046;2023-08-20T01:45:07;21.90;;;18.20;;
76729;SDS011;65653;53.106;18.046;2023-08-20T01:47:33;22.80;;;18.80;;
76729;SDS011;65653;53.106;18.046;2023-08-20T01:50:00;27.10;;;19.50;;
76729;SDS011;65653;53.106;18.046;2023-08-20T01:52:26;23.60;;;19.00;;
76729;SDS011;65653;53.106;18.046;2023-08-20T01:54:53;25.80;;;20.40;;
76729;SDS011;65653;53.106;18.046;2023-08-20T01:57:20;25.90;;;19.60;;
76729;SDS011;65653;53.106;18.046;2023-08-20T01:59:47;25.00;;;21.60;;
76729;SDS011;65653;53.106;18.046;2023-08-20T02:02:14;22.80;;;19.20;;
76729;SDS011;65653;53.106;18.046;2023-08-20T02:04:40;27.80;;;21.90;;
76729;SDS011;65653;53.106;18.046;2023-08-20T02:07:07;24.00;;;20.10;;
76729;SDS011;65653;53.106;18.046;2023-08-20T02:09:33;26.50;;;20.90;;
76729;SDS011;65653;53.106;18.046;2023-08-20T02:11:59;28.40;;;20.70;;
76729;SDS011;65653;53.106;18.046;2023-08-20T02:14:26;28.30;;;21.40;;
76729;SDS011;65653;53.106;18.046;2023-08-20T02:16:54;30.90;;;20.60;;
76729;SDS011;65653;53.106;18.046;2023-08-20T02:19:20;25.00;;;20.50;;
76729;SDS011;65653;53.106;18.046;2023-08-20T02:21:47;27.10;;;20.40;;
76729;SDS011;65653;53.106;18.046;2023-08-20T02:24:14;29.80;;;20.40;;
76729;SDS011;65653;53.106;18.046;2023-08-20T02:26:40;25.80;;;21.70;;
76729;SDS011;65653;53.106;18.046;2023-08-20T02:29:06;27.20;;;19.80;;
76729;SDS011;65653;53.106;18.046;2023-08-20T02:31:33;30.00;;;21.50;;
76729;SDS011;65653;53.106;18.046;2023-08-20T02:33:59;24.00;;;20.50;;
76729;SDS011;65653;53.106;18.046;2023-08-20T02:36:26;25.00;;;19.90;;
76729;SDS011;65653;53.106;18.046;2023-08-20T02:38:52;24.00;;;20.00;;
76729;SDS011;65653;53.106;18.046;2023-08-20T02:41:19;24.90;;;20.20;;
76729;SDS011;65653;53.106;18.046;2023-08-20T02:43:45;24.80;;;20.70;;
76729;SDS011;65653;53.106;18.046;2023-08-20T02:46:12;25.60;;;20.90;;
76729;SDS011;65653;53.106;18.046;2023-08-20T02:48:38;24.80;;;19.50;;
76729;SDS011;65653;53.106;18.046;2023-08-20T02:51:05;25.50;;;19.90;;
76729;SDS011;65653;53.106;18.046;2023-08-20T02:53:31;27.30;;;21.10;;
76729;SDS011;65653;53.106;18.046;2023-08-20T02:55:58;26.00;;;21.60;;
76729;SDS011;65653;53.106;18.046;2023-08-20T02:58:25;26.60;;;20.90;;
76729;SDS011;65653;53.106;18.046;2023-08-20T03:00:52;28.20;;;20.80;;
76729;SDS011;65653;53.106;18.046;2023-08-20T03:03:19;25.80;;;21.80;;
76729;SDS011;65653;53.106;18.046;2023-08-20T03:05:45;26.50;;;22.20;;
76729;SDS011;65653;53.106;18.046;2023-08-20T03:08:12;27.50;;;22.00;;
76729;SDS011;65653;53.106;18.046;2023-08-20T03:10:38;26.50;;;22.30;;
76729;SDS011;65653;53.106;18.046;2023-08-20T03:13:04;27.30;;;22.20;;
76729;SDS011;65653;53.106;18.046;2023-08-20T03:15:31;26.90;;;21.10;;
76729;SDS011;65653;53.106;18.046;2023-08-20T03:17:57;28.60;;;22.00;;
76729;SDS011;65653;53.106;18.046;2023-08-20T03:20:24;34.60;;;21.40;;
76729;SDS011;65653;53.106;18.046;2023-08-20T03:22:51;29.00;;;21.90;;
76729;SDS011;65653;53.106;18.046;2023-08-20T03:25:17;28.00;;;23.40;;
76729;SDS011;65653;53.106;18.046;2023-08-20T03:27:44;26.90;;;23.20;;
76729;SDS011;65653;53.106;18.046;2023-08-20T03:30:10;27.20;;;22.10;;
76729;SDS011;65653;53.106;18.046;2023-08-20T03:32:37;26.60;;;20.90;;
76729;SDS011;65653;53.106;18.046;2023-08-20T03:35:03;29.30;;;21.60;;
76729;SDS011;65653;53.106;18.046;2023-08-20T03:37:30;29.60;;;22.50;;
76729;SDS011;65653;53.106;18.046;2023-08-20T03:39:57;29.80;;;23.00;;
76729;SDS011;65653;53.106;18.046;2023-08-20T03:42:23;28.00;;;22.50;;
76729;SDS011;65653;53.106;18.046;2023-08-20T03:44:50;25.30;;;20.10;;
76729;SDS011;65653;53.106;18.046;2023-08-20T03:47:16;25.20;;;20.30;;
76729;SDS011;65653;53.106;18.046;2023-08-20T03:49:46;26.40;;;21.60;;
76729;SDS011;65653;53.106;18.046;2023-08-20T03:52:14;27.80;;;22.40;;
76729;SDS011;65653;53.106;18.046;2023-08-20T03:54:41;26.50;;;21.20;;
76729;SDS011;65653;53.106;18.046;2023-08-20T03:57:07;26.70;;;21.60;;
76729;SDS011;65653;53.106;18.046;2023-08-20T03:59:33;30.30;;;22.00;;
76729;SDS011;65653;53.106;18.046;2023-08-20T04:02:00;25.60;;;22.50;;
76729;SDS011;65653;53.106;18.046;2023-08-20T04:04:26;30.40;;;23.20;;
76729;SDS011;65653;53.106;18.046;2023-08-20T04:06:54;25.10;;;21.30;;
76729;SDS011;65653;53.106;18.046;2023-08-20T04:09:21;29.00;;;22.10;;
76729;SDS011;65653;53.106;18.046;2023-08-20T04:11:47;28.50;;;22.90;;
76729;SDS011;65653;53.106;18.046;2023-08-20T04:14:14;26.70;;;22.20;;
76729;SDS011;65653;53.106;18.046;2023-08-20T04:16:40;27.80;;;22.00;;
76729;SDS011;65653;53.106;18.046;2023-08-20T04:19:07;26.30;;;21.50;;
76729;SDS011;65653;53.106;18.046;2023-08-20T04:21:34;29.50;;;22.90;;
76729;SDS011;65653;53.106;18.046;2023-08-20T04:24:00;29.70;;;22.60;;
76729;SDS011;65653;53.106;18.046;2023-08-20T04:26:27;27.40;;;22.60;;
76729;SDS011;65653;53.106;18.046;2023-08-20T04:28:53;28.80;;;22.60;;
76729;SDS011;65653;53.106;18.046;2023-08-20T04:31:20;29.00;;;22.20;;
76729;SDS011;65653;53.106;18.046;2023-08-20T04:33:46;28.50;;;22.00;;
76729;SDS011;65653;53.106;18.046;2023-08-20T04:36:12;27.60;;;22.70;;
76729;SDS011;65653;53.106;18.046;2023-08-20T04:38:39;30.20;;;24.30;;
76729;SDS011;65653;53.106;18.046;2023-08-20T04:41:05;28.50;;;24.30;;
76729;SDS011;65653;53.106;18.046;2023-08-20T04:43:32;26.30;;;20.90;;
76729;SDS011;65653;53.106;18.046;2023-08-20T04:45:58;26.50;;;20.30;;
76729;SDS011;65653;53.106;18.046;2023-08-20T04:48:24;25.90;;;21.30;;
76729;SDS011;65653;53.106;18.046;2023-08-20T04:50:51;26.30;;;20.90;;
76729;SDS011;65653;53.106;18.046;2023-08-20T04:53:17;26.40;;;20.50;;
76729;SDS011;65653;53.106;18.046;2023-08-20T04:55:44;27.50;;;21.90;;
76729;SDS011;65653;53.106;18.046;2023-08-20T04:58:10;26.90;;;21.50;;
76729;SDS011;65653;53.106;18.046;2023-08-20T05:00:36;27.80;;;22.00;;
76729;SDS011;65653;53.106;18.046;2023-08-20T05:03:03;25.60;;;22.50;;
76729;SDS011;65653;53.106;18.046;2023-08-20T05:05:30;31.40;;;21.90;;
76729;SDS011;65653;53.106;18.046;2023-08-20T05:07:56;29.90;;;23.00;;
76729;SDS011;65653;53.106;18.046;2023-08-20T05:10:23;25.10;;;21.10;;
76729;SDS011;65653;53.106;18.046;2023-08-20T05:12:49;28.50;;;21.90;;
76729;SDS011;65653;53.106;18.046;2023-08-20T05:15:16;30.20;;;22.80;;
76729;SDS011;65653;53.106;18.046;2023-08-20T05:17:42;25.20;;;20.90;;
76729;SDS011;65653;53.106;18.046;2023-08-20T05:20:09;22.60;;;19.80;;
76729;SDS011;65653;53.106;18.046;2023-08-20T05:22:36;24.90;;;20.90;;
76729;SDS011;65653;53.106;18.046;2023-08-20T05:25:03;21.50;;;18.70;;
76729;SDS011;65653;53.106;18.046;2023-08-20T05:27:29;25.70;;;21.40;;
76729;SDS011;65653;53.106;18.046;2023-08-20T05:29:56;27.20;;;20.40;;
76729;SDS011;65653;53.106;18.046;2023-08-20T05:32:22;24.80;;;19.70;;
76729;SDS011;65653;53.106;18.046;2023-08-20T05:34:48;26.40;;;20.40;;
76729;SDS011;65653;53.106;18.046;2023-08-20T05:37:15;26.30;;;19.90;;
76729;SDS011;65653;53.106;18.046;2023-08-20T05:39:42;26.10;;;20.80;;
76729;SDS011;65653;53.106;18.046;2023-08-20T05:42:09;24.80;;;19.70;;
76729;SDS011;65653;53.106;18.046;2023-08-20T05:44:36;26.90;;;20.00;;
76729;SDS011;65653;53.106;18.046;2023-08-20T05:47:03;23.50;;;18.80;;
76729;SDS011;65653;53.106;18.046;2023-08-20T05:49:32;21.80;;;19.10;;
76729;SDS011;65653;53.106;18.046;2023-08-20T05:51:58;16.80;;;14.90;;
76729;SDS011;65653;53.106;18.046;2023-08-20T05:54:25;21.40;;;18.90;;
76729;SDS011;65653;53.106;18.046;2023-08-20T05:56:51;21.70;;;17.80;;
76729;SDS011;65653;53.106;18.046;2023-08-20T05:59:17;23.80;;;17.70;;
76729;SDS011;65653;53.106;18.046;2023-08-20T06:01:44;17.40;;;14.50;;
76729;SDS011;65653;53.106;18.046;2023-08-20T06:04:10;21.30;;;18.70;;
76729;SDS011;65653;53.106;18.046;2023-08-20T06:06:37;19.40;;;16.10;;
76729;SDS011;65653;53.106;18.046;2023-08-20T06:09:03;18.70;;;16.10;;
76729;SDS011;65653;53.106;18.046;2023-08-20T06:11:30;19.10;;;17.10;;
76729;SDS011;65653;53.106;18.046;2023-08-20T06:13:56;22.60;;;17.60;;
76729;SDS011;65653;53.106;18.046;2023-08-20T06:16:22;18.10;;;15.80;;
76729;SDS011;65653;53.106;18.046;2023-08-20T06:18:49;19.00;;;16.50;;
76729;SDS011;65653;53.106;18.046;2023-08-20T06:21:15;18.20;;;16.30;;
76729;SDS011;65653;53.106;18.046;2023-08-20T06:23:42;19.70;;;17.20;;
76729;SDS011;65653;53.106;18.046;2023-08-20T06:26:08;17.30;;;15.40;;
76729;SDS011;65653;53.106;18.046;2023-08-20T06:28:34;19.70;;;16.30;;
76729;SDS011;65653;53.106;18.046;2023-08-20T06:31:01;16.20;;;14.00;;
76729;SDS011;65653;53.106;18.046;2023-08-20T06:33:27;16.20;;;14.50;;
76729;SDS011;65653;53.106;18.046;2023-08-20T06:35:54;16.00;;;13.00;;
76729;SDS011;65653;53.106;18.046;2023-08-20T06:38:20;12.40;;;10.60;;
76729;SDS011;65653;53.106;18.046;2023-08-20T06:40:47;13.40;;;12.10;;
76729;SDS011;65653;53.106;18.046;2023-08-20T06:43:14;11.90;;;10.70;;
76729;SDS011;65653;53.106;18.046;2023-08-20T06:45:40;11.20;;;10.10;;
76729;SDS011;65653;53.106;18.046;2023-08-20T06:48:06;15.50;;;11.90;;
76729;SDS011;65653;53.106;18.046;2023-08-20T06:50:33;12.00;;;10.30;;
76729;SDS011;65653;53.106;18.046;2023-08-20T06:52:59;13.20;;;10.20;;
76729;SDS011;65653;53.106;18.046;2023-08-20T06:55:26;11.80;;;10.60;;
76729;SDS011;65653;53.106;18.046;2023-08-20T06:57:52;11.10;;;9.50;;
76729;SDS011;65653;53.106;18.046;2023-08-20T07:00:18;12.30;;;11.00;;
76729;SDS011;65653;53.106;18.046;2023-08-20T07:02:45;11.10;;;10.00;;
76729;SDS011;65653;53.106;18.046;2023-08-20T07:05:11;11.20;;;10.00;;
76729;SDS011;65653;53.106;18.046;2023-08-20T07:07:39;10.00;;;9.10;;
76729;SDS011;65653;53.106;18.046;2023-08-20T07:10:05;11.00;;;9.90;;
76729;SDS011;65653;53.106;18.046;2023-08-20T07:12:32;10.90;;;9.80;;
76729;SDS011;65653;53.106;18.046;2023-08-20T07:14:59;10.20;;;9.10;;
76729;SDS011;65653;53.106;18.046;2023-08-20T07:17:25;9.10;;;8.20;;
76729;SDS011;65653;53.106;18.046;2023-08-20T07:19:52;9.50;;;8.60;;
76729;SDS011;65653;53.106;18.046;2023-08-20T07:22:18;9.80;;;8.90;;
76729;SDS011;65653;53.106;18.046;2023-08-20T07:24:44;9.10;;;8.20;;
76729;SDS011;65653;53.106;18.046;2023-08-20T07:27:11;12.40;;;9.60;;
76729;SDS011;65653;53.106;18.046;2023-08-20T07:29:38;10.50;;;9.10;;
76729;SDS011;65653;53.106;18.046;2023-08-20T07:32:05;9.70;;;8.80;;
76729;SDS011;65653;53.106;18.046;2023-08-20T07:34:31;9.30;;;8.40;;
76729;SDS011;65653;53.106;18.046;2023-08-20T07:37:00;9.50;;;8.70;;
76729;SDS011;65653;53.106;18.046;2023-08-20T07:39:27;9.20;;;8.10;;
76729;SDS011;65653;53.106;18.046;2023-08-20T07:41:54;9.60;;;8.60;;
76729;SDS011;65653;53.106;18.046;2023-08-20T07:44:22;9.20;;;8.40;;
76729;SDS011;65653;53.106;18.046;2023-08-20T07:46:48;8.90;;;8.10;;
76729;SDS011;65653;53.106;18.046;2023-08-20T07:49:15;9.60;;;8.70;;
76729;SDS011;65653;53.106;18.046;2023-08-20T07:51:41;9.20;;;8.40;;
76729;SDS011;65653;53.106;18.046;2023-08-20T07:54:07;10.00;;;9.10;;
76729;SDS011;65653;53.106;18.046;2023-08-20T07:56:34;10.70;;;9.70;;
76729;SDS011;65653;53.106;18.046;2023-08-20T07:59:02;11.10;;;9.10;;
76729;SDS011;65653;53.106;18.046;2023-08-20T08:01:29;9.70;;;8.80;;
76729;SDS011;65653;53.106;18.046;2023-08-20T08:03:56;10.70;;;9.40;;
76729;SDS011;65653;53.106;18.046;2023-08-20T08:06:22;10.90;;;9.90;;
76729;SDS011;65653;53.106;18.046;2023-08-20T08:08:50;12.90;;;10.10;;
76729;SDS011;65653;53.106;18.046;2023-08-20T08:11:17;9.60;;;8.70;;
76729;SDS011;65653;53.106;18.046;2023-08-20T08:13:43;11.20;;;9.70;;
76729;SDS011;65653;53.106;18.046;2023-08-20T08:16:10;9.60;;;8.70;;
76729;SDS011;65653;53.106;18.046;2023-08-20T08:18:36;10.30;;;9.20;;
76729;SDS011;65653;53.106;18.046;2023-08-20T08:21:02;9.90;;;9.00;;
76729;SDS011;65653;53.106;18.046;2023-08-20T08:23:29;8.80;;;8.00;;
76729;SDS011;65653;53.106;18.046;2023-08-20T08:25:55;9.20;;;8.40;;
76729;SDS011;65653;53.106;18.046;2023-08-20T08:28:22;9.10;;;8.30;;
76729;SDS011;65653;53.106;18.046;2023-08-20T08:30:48;8.70;;;7.80;;
76729;SDS011;65653;53.106;18.046;2023-08-20T08:33:15;8.60;;;7.70;;
76729;SDS011;65653;53.106;18.046;2023-08-20T08:35:41;7.80;;;7.10;;
76729;SDS011;65653;53.106;18.046;2023-08-20T08:38:08;7.60;;;7.10;;
76729;SDS011;65653;53.106;18.046;2023-08-20T08:40:34;8.20;;;7.30;;
76729;SDS011;65653;53.106;18.046;2023-08-20T08:43:01;7.40;;;6.70;;
76729;SDS011;65653;53.106;18.046;2023-08-20T08:45:28;7.20;;;6.50;;
76729;SDS011;65653;53.106;18.046;2023-08-20T08:47:56;8.40;;;7.60;;
76729;SDS011;65653;53.106;18.046;2023-08-20T08:50:22;7.70;;;7.00;;
76729;SDS011;65653;53.106;18.046;2023-08-20T08:52:50;7.10;;;6.50;;
76729;SDS011;65653;53.106;18.046;2023-08-20T08:55:18;6.30;;;5.80;;
76729;SDS011;65653;53.106;18.046;2023-08-20T08:57:45;7.20;;;6.50;;
76729;SDS011;65653;53.106;18.046;2023-08-20T09:00:12;6.30;;;5.80;;
76729;SDS011;65653;53.106;18.046;2023-08-20T09:02:39;6.20;;;5.70;;
76729;SDS011;65653;53.106;18.046;2023-08-20T09:05:06;6.80;;;6.30;;
76729;SDS011;65653;53.106;18.046;2023-08-20T09:07:33;7.10;;;6.50;;
76729;SDS011;65653;53.106;18.046;2023-08-20T09:10:00;7.30;;;6.70;;
76729;SDS011;65653;53.106;18.046;2023-08-20T09:12:26;7.00;;;6.30;;
76729;SDS011;65653;53.106;18.046;2023-08-20T09:14:54;9.40;;;6.90;;
76729;SDS011;65653;53.106;18.046;2023-08-20T09:17:25;7.50;;;6.80;;
76729;SDS011;65653;53.106;18.046;2023-08-20T09:19:55;7.60;;;6.50;;
76729;SDS011;65653;53.106;18.046;2023-08-20T09:22:23;6.70;;;6.10;;
76729;SDS011;65653;53.106;18.046;2023-08-20T09:24:54;6.20;;;5.70;;
76729;SDS011;65653;53.106;18.046;2023-08-20T09:27:21;7.10;;;6.40;;
76729;SDS011;65653;53.106;18.046;2023-08-20T09:29:49;5.90;;;5.40;;
76729;SDS011;65653;53.106;18.046;2023-08-20T09:34:52;7.40;;;6.40;;
76729;SDS011;65653;53.106;18.046;2023-08-20T09:37:21;6.80;;;6.10;;
76729;SDS011;65653;53.106;18.046;2023-08-20T09:39:48;6.60;;;6.10;;
76729;SDS011;65653;53.106;18.046;2023-08-20T09:42:16;6.90;;;6.00;;
76729;SDS011;65653;53.106;18.046;2023-08-20T09:44:43;7.10;;;6.40;;
76729;SDS011;65653;53.106;18.046;2023-08-20T09:47:13;6.40;;;5.70;;
76729;SDS011;65653;53.106;18.046;2023-08-20T09:52:09;5.80;;;5.30;;
76729;SDS011;65653;53.106;18.046;2023-08-20T09:57:50;6.90;;;6.30;;
76729;SDS011;65653;53.106;18.046;2023-08-20T10:00:10;6.00;;;5.60;;
76729;SDS011;65653;53.106;18.046;2023-08-20T10:02:38;6.70;;;5.70;;
76729;SDS011;65653;53.106;18.046;2023-08-20T10:05:06;6.60;;;6.00;;
76729;SDS011;65653;53.106;18.046;2023-08-20T10:07:34;5.90;;;5.40;;
76729;SDS011;65653;53.106;18.046;2023-08-20T10:10:02;6.20;;;5.60;;
76729;SDS011;65653;53.106;18.046;2023-08-20T10:12:30;5.70;;;5.10;;
76729;SDS011;65653;53.106;18.046;2023-08-20T10:14:58;6.90;;;6.30;;
76729;SDS011;65653;53.106;18.046;2023-08-20T10:17:29;7.00;;;6.40;;
76729;SDS011;65653;53.106;18.046;2023-08-20T10:19:57;6.20;;;5.70;;
76729;SDS011;65653;53.106;18.046;2023-08-20T10:22:42;5.90;;;5.40;;
76729;SDS011;65653;53.106;18.046;2023-08-20T10:25:10;6.00;;;5.50;;
76729;SDS011;65653;53.106;18.046;2023-08-20T10:27:40;6.40;;;5.80;;
76729;SDS011;65653;53.106;18.046;2023-08-20T10:30:09;6.20;;;5.70;;
76729;SDS011;65653;53.106;18.046;2023-08-20T10:35:18;6.60;;;6.00;;
76729;SDS011;65653;53.106;18.046;2023-08-20T10:38:06;6.80;;;6.20;;
76729;SDS011;65653;53.106;18.046;2023-08-20T10:43:26;6.90;;;6.40;;
76729;SDS011;65653;53.106;18.046;2023-08-20T10:46:13;13.80;;;12.40;;
76729;SDS011;65653;53.106;18.046;2023-08-20T10:48:42;7.60;;;6.80;;
76729;SDS011;65653;53.106;18.046;2023-08-20T10:51:13;7.60;;;6.90;;
76729;SDS011;65653;53.106;18.046;2023-08-20T10:53:42;7.10;;;6.50;;
76729;SDS011;65653;53.106;18.046;2023-08-20T10:56:15;6.40;;;5.90;;
76729;SDS011;65653;53.106;18.046;2023-08-20T10:58:43;6.30;;;5.70;;
76729;SDS011;65653;53.106;18.046;2023-08-20T11:01:12;5.20;;;4.70;;
76729;SDS011;65653;53.106;18.046;2023-08-20T11:03:43;5.30;;;4.70;;
76729;SDS011;65653;53.106;18.046;2023-08-20T11:06:11;5.30;;;4.80;;
76729;SDS011;65653;53.106;18.046;2023-08-20T11:08:38;4.90;;;4.40;;
76729;SDS011;65653;53.106;18.046;2023-08-20T11:11:08;5.60;;;4.70;;
76729;SDS011;65653;53.106;18.046;2023-08-20T11:13:35;4.90;;;4.50;;
76729;SDS011;65653;53.106;18.046;2023-08-20T11:16:02;5.10;;;4.50;;
76729;SDS011;65653;53.106;18.046;2023-08-20T11:18:30;4.80;;;4.30;;
76729;SDS011;65653;53.106;18.046;2023-08-20T11:20:58;5.00;;;4.60;;
76729;SDS011;65653;53.106;18.046;2023-08-20T11:23:25;4.60;;;3.90;;
76729;SDS011;65653;53.106;18.046;2023-08-20T11:25:52;4.50;;;4.10;;
76729;SDS011;65653;53.106;18.046;2023-08-20T11:28:19;4.10;;;3.80;;
76729;SDS011;65653;53.106;18.046;2023-08-20T11:30:46;4.20;;;3.70;;
76729;SDS011;65653;53.106;18.046;2023-08-20T11:33:12;4.40;;;4.10;;
76729;SDS011;65653;53.106;18.046;2023-08-20T11:35:40;4.20;;;3.80;;
76729;SDS011;65653;53.106;18.046;2023-08-20T11:38:07;3.90;;;3.50;;
76729;SDS011;65653;53.106;18.046;2023-08-20T11:40:36;3.60;;;3.10;;
76729;SDS011;65653;53.106;18.046;2023-08-20T11:43:03;4.00;;;3.30;;
76729;SDS011;65653;53.106;18.046;2023-08-20T11:45:30;3.90;;;3.60;;
76729;SDS011;65653;53.106;18.046;2023-08-20T11:47:58;4.10;;;3.80;;
76729;SDS011;65653;53.106;18.046;2023-08-20T11:50:25;4.60;;;4.10;;
76729;SDS011;65653;53.106;18.046;2023-08-20T11:52:52;4.50;;;4.20;;
76729;SDS011;65653;53.106;18.046;2023-08-20T11:55:24;4.00;;;3.70;;
76729;SDS011;65653;53.106;18.046;2023-08-20T11:57:51;4.40;;;4.00;;
76729;SDS011;65653;53.106;18.046;2023-08-20T12:00:28;4.80;;;4.20;;
76729;SDS011;65653;53.106;18.046;2023-08-20T12:02:57;4.60;;;4.20;;
76729;SDS011;65653;53.106;18.046;2023-08-20T12:05:27;5.10;;;4.50;;
76729;SDS011;65653;53.106;18.046;2023-08-20T12:08:01;5.10;;;4.40;;
76729;SDS011;65653;53.106;18.046;2023-08-20T12:10:29;3.90;;;3.60;;
76729;SDS011;65653;53.106;18.046;2023-08-20T12:12:57;8.00;;;7.30;;
76729;SDS011;65653;53.106;18.046;2023-08-20T12:15:24;4.10;;;3.80;;
76729;SDS011;65653;53.106;18.046;2023-08-20T12:17:55;3.70;;;3.40;;
76729;SDS011;65653;53.106;18.046;2023-08-20T12:20:31;4.00;;;3.70;;
76729;SDS011;65653;53.106;18.046;2023-08-20T12:22:59;3.90;;;3.60;;
76729;SDS011;65653;53.106;18.046;2023-08-20T12:25:32;4.00;;;3.80;;
76729;SDS011;65653;53.106;18.046;2023-08-20T12:28:01;4.00;;;3.70;;
76729;SDS011;65653;53.106;18.046;2023-08-20T12:30:29;3.90;;;3.60;;
76729;SDS011;65653;53.106;18.046;2023-08-20T12:32:56;4.60;;;3.10;;
76729;SDS011;65653;53.106;18.046;2023-08-20T12:35:23;3.50;;;3.20;;
76729;SDS011;65653;53.106;18.046;2023-08-20T12:37:49;4.20;;;3.90;;
76729;SDS011;65653;53.106;18.046;2023-08-20T12:40:16;3.50;;;3.20;;
76729;SDS011;65653;53.106;18.046;2023-08-20T12:42:43;3.80;;;3.50;;
76729;SDS011;65653;53.106;18.046;2023-08-20T12:45:09;3.70;;;3.40;;
76729;SDS011;65653;53.106;18.046;2023-08-20T12:47:36;4.00;;;3.50;;
76729;SDS011;65653;53.106;18.046;2023-08-20T12:50:03;3.70;;;3.30;;
76729;SDS011;65653;53.106;18.046;2023-08-20T12:52:31;3.60;;;3.40;;
76729;SDS011;65653;53.106;18.046;2023-08-20T12:54:59;3.30;;;3.10;;
76729;SDS011;65653;53.106;18.046;2023-08-20T12:57:26;3.20;;;3.00;;
76729;SDS011;65653;53.106;18.046;2023-08-20T12:59:52;3.10;;;2.90;;
76729;SDS011;65653;53.106;18.046;2023-08-20T13:02:19;3.40;;;3.10;;
76729;SDS011;65653;53.106;18.046;2023-08-20T13:04:47;3.40;;;3.20;;
76729;SDS011;65653;53.106;18.046;2023-08-20T13:07:14;3.90;;;3.70;;
76729;SDS011;65653;53.106;18.046;2023-08-20T13:09:41;3.40;;;2.70;;
76729;SDS011;65653;53.106;18.046;2023-08-20T13:12:09;3.70;;;3.40;;
76729;SDS011;65653;53.106;18.046;2023-08-20T13:14:39;5.10;;;3.20;;
76729;SDS011;65653;53.106;18.046;2023-08-20T13:19:34;3.60;;;3.00;;
76729;SDS011;65653;53.106;18.046;2023-08-20T13:22:00;3.50;;;3.20;;
76729;SDS011;65653;53.106;18.046;2023-08-20T13:24:27;3.20;;;3.00;;
76729;SDS011;65653;53.106;18.046;2023-08-20T13:26:53;3.00;;;2.80;;
76729;SDS011;65653;53.106;18.046;2023-08-20T13:29:20;3.80;;;3.50;;
76729;SDS011;65653;53.106;18.046;2023-08-20T13:31:46;3.80;;;3.40;;
76729;SDS011;65653;53.106;18.046;2023-08-20T13:34:13;6.80;;;3.40;;
76729;SDS011;65653;53.106;18.046;2023-08-20T13:36:40;3.40;;;3.10;;
76729;SDS011;65653;53.106;18.046;2023-08-20T13:39:07;3.70;;;3.40;;
76729;SDS011;65653;53.106;18.046;2023-08-20T13:41:33;3.70;;;3.40;;
76729;SDS011;65653;53.106;18.046;2023-08-20T13:44:00;3.50;;;3.20;;
76729;SDS011;65653;53.106;18.046;2023-08-20T13:46:26;3.80;;;3.20;;
76729;SDS011;65653;53.106;18.046;2023-08-20T13:48:53;3.90;;;3.40;;
76729;SDS011;65653;53.106;18.046;2023-08-20T13:51:19;5.70;;;3.80;;
76729;SDS011;65653;53.106;18.046;2023-08-20T13:53:46;3.90;;;3.60;;
76729;SDS011;65653;53.106;18.046;2023-08-20T13:56:12;3.80;;;3.50;;
76729;SDS011;65653;53.106;18.046;2023-08-20T13:58:39;4.30;;;3.60;;
76729;SDS011;65653;53.106;18.046;2023-08-20T14:01:05;5.80;;;3.60;;
76729;SDS011;65653;53.106;18.046;2023-08-20T14:03:32;5.30;;;3.30;;
76729;SDS011;65653;53.106;18.046;2023-08-20T14:05:59;3.90;;;3.50;;
76729;SDS011;65653;53.106;18.046;2023-08-20T14:08:25;4.00;;;3.70;;
76729;SDS011;65653;53.106;18.046;2023-08-20T14:10:52;4.20;;;3.90;;
76729;SDS011;65653;53.106;18.046;2023-08-20T14:13:18;3.70;;;3.50;;
76729;SDS011;65653;53.106;18.046;2023-08-20T14:15:45;4.30;;;3.80;;
76729;SDS011;65653;53.106;18.046;2023-08-20T14:18:12;3.90;;;3.50;;
76729;SDS011;65653;53.106;18.046;2023-08-20T14:20:38;4.10;;;3.80;;
76729;SDS011;65653;53.106;18.046;2023-08-20T14:23:05;4.30;;;3.90;;
76729;SDS011;65653;53.106;18.046;2023-08-20T14:25:31;5.20;;;3.70;;
76729;SDS011;65653;53.106;18.046;2023-08-20T14:27:58;4.70;;;4.30;;
76729;SDS011;65653;53.106;18.046;2023-08-20T14:30:24;4.70;;;4.30;;
76729;SDS011;65653;53.106;18.046;2023-08-20T14:32:51;4.60;;;4.20;;
76729;SDS011;65653;53.106;18.046;2023-08-20T14:35:17;4.90;;;4.60;;
76729;SDS011;65653;53.106;18.046;2023-08-20T14:37:44;5.10;;;4.70;;
76729;SDS011;65653;53.106;18.046;2023-08-20T14:40:10;5.10;;;4.60;;
76729;SDS011;65653;53.106;18.046;2023-08-20T14:42:37;6.60;;;5.40;;
76729;SDS011;65653;53.106;18.046;2023-08-20T14:45:04;5.70;;;5.10;;
76729;SDS011;65653;53.106;18.046;2023-08-20T14:47:31;5.90;;;5.20;;